sensor_id;sensor_type;location;lat;lon;timestamp;P1;durP1;ratioP1;P2;durP2;ratioP2
17414;SDS011;8825;48.086;16.426;2023-06-10T00:01:47;3.60;;;3.30;;
17414;SDS011;8825;48.086;16.426;2023-06-10T00:04:14;3.60;;;3.30;;
17414;SDS011;8825;48.086;16.426;2023-06-10T00:06:45;3.00;;;2.80;;
17414;SDS011;8825;48.086;16.426;2023-06-10T00:09:14;2.97;;;2.77;;
17414;SDS011;8825;48.086;16.426;2023-06-10T00:11:44;3.67;;;3.20;;
17414;SDS011;8825;48.086;16.426;2023-06-10T00:14:11;3.13;;;2.93;;
17414;SDS011;8825;48.086;16.426;2023-06-10T00:16:39;3.57;;;3.27;;
17414;SDS011;8825;48.086;16.426;2023-06-10T00:19:08;3.50;;;3.23;;
17414;SDS011;8825;48.086;16.426;2023-06-10T00:21:38;3.80;;;3.50;;
17414;SDS011;8825;48.086;16.426;2023-06-10T00:24:06;3.60;;;3.30;;
17414;SDS011;8825;48.086;16.426;2023-06-10T00:26:40;3.57;;;3.27;;
17414;SDS011;8825;48.086;16.426;2023-06-10T00:29:08;3.60;;;3.30;;
17414;SDS011;8825;48.086;16.426;2023-06-10T00:31:37;3.70;;;3.40;;
17414;SDS011;8825;48.086;16.426;2023-06-10T00:34:05;3.47;;;3.20;;
17414;SDS011;8825;48.086;16.426;2023-06-10T00:36:34;3.37;;;3.17;;
17414;SDS011;8825;48.086;16.426;2023-06-10T00:39:02;4.07;;;3.37;;
17414;SDS011;8825;48.086;16.426;2023-06-10T00:41:36;3.43;;;3.13;;
17414;SDS011;8825;48.086;16.426;2023-06-10T00:44:03;3.67;;;3.30;;
17414;SDS011;8825;48.086;16.426;2023-06-10T00:46:31;3.50;;;3.20;;
17414;SDS011;8825;48.086;16.426;2023-06-10T00:48:59;3.37;;;3.10;;
17414;SDS011;8825;48.086;16.426;2023-06-10T00:51:27;3.50;;;3.20;;
17414;SDS011;8825;48.086;16.426;2023-06-10T00:53:55;3.30;;;3.00;;
17414;SDS011;8825;48.086;16.426;2023-06-10T00:56:24;3.37;;;3.07;;
17414;SDS011;8825;48.086;16.426;2023-06-10T00:58:52;3.53;;;3.23;;
17414;SDS011;8825;48.086;16.426;2023-06-10T01:01:20;3.80;;;3.47;;
17414;SDS011;8825;48.086;16.426;2023-06-10T01:03:47;3.30;;;3.10;;
17414;SDS011;8825;48.086;16.426;2023-06-10T01:09:13;3.90;;;3.60;;
17414;SDS011;8825;48.086;16.426;2023-06-10T01:11:49;3.70;;;3.40;;
17414;SDS011;8825;48.086;16.426;2023-06-10T01:14:18;3.60;;;3.30;;
17414;SDS011;8825;48.086;16.426;2023-06-10T01:16:46;3.70;;;3.40;;
17414;SDS011;8825;48.086;16.426;2023-06-10T01:19:15;3.27;;;3.07;;
17414;SDS011;8825;48.086;16.426;2023-06-10T01:21:43;3.57;;;3.27;;
17414;SDS011;8825;48.086;16.426;2023-06-10T01:24:12;4.07;;;3.63;;
17414;SDS011;8825;48.086;16.426;2023-06-10T01:26:40;3.70;;;3.40;;
17414;SDS011;8825;48.086;16.426;2023-06-10T01:29:11;3.60;;;3.30;;
17414;SDS011;8825;48.086;16.426;2023-06-10T01:31:49;3.43;;;3.13;;
17414;SDS011;8825;48.086;16.426;2023-06-10T01:34:19;4.23;;;3.93;;
17414;SDS011;8825;48.086;16.426;2023-06-10T01:36:50;4.20;;;3.80;;
17414;SDS011;8825;48.086;16.426;2023-06-10T01:39:20;4.20;;;3.70;;
17414;SDS011;8825;48.086;16.426;2023-06-10T01:41:49;3.70;;;3.40;;
17414;SDS011;8825;48.086;16.426;2023-06-10T01:44:22;3.93;;;3.63;;
17414;SDS011;8825;48.086;16.426;2023-06-10T01:46:50;4.60;;;4.20;;
17414;SDS011;8825;48.086;16.426;2023-06-10T01:49:17;3.97;;;3.67;;
17414;SDS011;8825;48.086;16.426;2023-06-10T01:51:45;4.20;;;3.90;;
17414;SDS011;8825;48.086;16.426;2023-06-10T01:54:13;3.90;;;3.60;;
17414;SDS011;8825;48.086;16.426;2023-06-10T01:56:40;4.20;;;3.80;;
17414;SDS011;8825;48.086;16.426;2023-06-10T01:59:08;4.17;;;3.87;;
17414;SDS011;8825;48.086;16.426;2023-06-10T02:01:35;4.23;;;3.57;;
17414;SDS011;8825;48.086;16.426;2023-06-10T02:04:03;3.90;;;3.60;;
17414;SDS011;8825;48.086;16.426;2023-06-10T02:06:30;3.90;;;3.60;;
17414;SDS011;8825;48.086;16.426;2023-06-10T02:08:58;4.20;;;3.90;;
17414;SDS011;8825;48.086;16.426;2023-06-10T02:11:25;4.37;;;3.97;;
17414;SDS011;8825;48.086;16.426;2023-06-10T02:13:53;4.00;;;3.60;;
17414;SDS011;8825;48.086;16.426;2023-06-10T02:16:20;4.87;;;4.20;;
17414;SDS011;8825;48.086;16.426;2023-06-10T02:18:48;5.43;;;4.20;;
17414;SDS011;8825;48.086;16.426;2023-06-10T02:21:16;4.00;;;3.70;;
17414;SDS011;8825;48.086;16.426;2023-06-10T02:23:43;4.17;;;3.87;;
17414;SDS011;8825;48.086;16.426;2023-06-10T02:26:10;4.43;;;4.03;;
17414;SDS011;8825;48.086;16.426;2023-06-10T02:28:38;5.10;;;4.50;;
17414;SDS011;8825;48.086;16.426;2023-06-10T02:31:10;4.47;;;4.07;;
17414;SDS011;8825;48.086;16.426;2023-06-10T02:33:38;4.60;;;4.20;;
17414;SDS011;8825;48.086;16.426;2023-06-10T02:36:06;4.67;;;4.30;;
17414;SDS011;8825;48.086;16.426;2023-06-10T02:38:33;4.53;;;4.13;;
17414;SDS011;8825;48.086;16.426;2023-06-10T02:41:01;4.40;;;3.77;;
17414;SDS011;8825;48.086;16.426;2023-06-10T02:43:28;8.67;;;4.77;;
17414;SDS011;8825;48.086;16.426;2023-06-10T02:45:56;6.90;;;4.67;;
17414;SDS011;8825;48.086;16.426;2023-06-10T02:48:23;5.07;;;4.57;;
17414;SDS011;8825;48.086;16.426;2023-06-10T02:50:51;4.90;;;4.50;;
17414;SDS011;8825;48.086;16.426;2023-06-10T02:53:19;5.30;;;4.83;;
17414;SDS011;8825;48.086;16.426;2023-06-10T02:55:46;5.63;;;5.13;;
17414;SDS011;8825;48.086;16.426;2023-06-10T02:58:14;4.77;;;4.37;;
17414;SDS011;8825;48.086;16.426;2023-06-10T03:00:41;5.10;;;4.60;;
17414;SDS011;8825;48.086;16.426;2023-06-10T03:03:10;6.77;;;5.03;;
17414;SDS011;8825;48.086;16.426;2023-06-10T03:05:38;5.17;;;4.77;;
17414;SDS011;8825;48.086;16.426;2023-06-10T03:08:06;5.97;;;5.40;;
17414;SDS011;8825;48.086;16.426;2023-06-10T03:10:33;5.63;;;5.13;;
17414;SDS011;8825;48.086;16.426;2023-06-10T03:13:01;5.53;;;5.03;;
17414;SDS011;8825;48.086;16.426;2023-06-10T03:15:29;5.70;;;5.20;;
17414;SDS011;8825;48.086;16.426;2023-06-10T03:17:58;5.53;;;5.03;;
17414;SDS011;8825;48.086;16.426;2023-06-10T03:20:26;5.43;;;4.97;;
17414;SDS011;8825;48.086;16.426;2023-06-10T03:22:54;5.90;;;5.23;;
17414;SDS011;8825;48.086;16.426;2023-06-10T03:25:21;6.40;;;5.90;;
17414;SDS011;8825;48.086;16.426;2023-06-10T03:27:49;6.20;;;5.60;;
17414;SDS011;8825;48.086;16.426;2023-06-10T03:30:16;5.60;;;5.20;;
17414;SDS011;8825;48.086;16.426;2023-06-10T03:32:44;5.57;;;5.10;;
17414;SDS011;8825;48.086;16.426;2023-06-10T03:35:11;5.77;;;5.17;;
17414;SDS011;8825;48.086;16.426;2023-06-10T03:37:40;5.43;;;5.03;;
17414;SDS011;8825;48.086;16.426;2023-06-10T03:40:08;5.27;;;4.80;;
17414;SDS011;8825;48.086;16.426;2023-06-10T03:42:36;6.20;;;5.70;;
17414;SDS011;8825;48.086;16.426;2023-06-10T03:45:03;6.20;;;5.60;;
17414;SDS011;8825;48.086;16.426;2023-06-10T03:47:34;5.80;;;5.30;;
17414;SDS011;8825;48.086;16.426;2023-06-10T03:50:03;7.20;;;5.03;;
17414;SDS011;8825;48.086;16.426;2023-06-10T03:52:31;6.33;;;5.80;;
17414;SDS011;8825;48.086;16.426;2023-06-10T03:54:58;6.23;;;5.73;;
17414;SDS011;8825;48.086;16.426;2023-06-10T03:57:26;6.30;;;5.80;;
17414;SDS011;8825;48.086;16.426;2023-06-10T03:59:54;6.20;;;5.60;;
17414;SDS011;8825;48.086;16.426;2023-06-10T04:02:22;5.60;;;5.17;;
17414;SDS011;8825;48.086;16.426;2023-06-10T04:04:49;5.53;;;5.03;;
17414;SDS011;8825;48.086;16.426;2023-06-10T04:07:17;6.30;;;5.80;;
17414;SDS011;8825;48.086;16.426;2023-06-10T04:09:46;5.93;;;5.40;;
17414;SDS011;8825;48.086;16.426;2023-06-10T04:12:13;5.50;;;5.10;;
17414;SDS011;8825;48.086;16.426;2023-06-10T04:14:42;6.03;;;5.53;;
17414;SDS011;8825;48.086;16.426;2023-06-10T04:17:10;6.50;;;5.90;;
17414;SDS011;8825;48.086;16.426;2023-06-10T04:19:37;5.50;;;5.10;;
17414;SDS011;8825;48.086;16.426;2023-06-10T04:22:05;6.37;;;5.87;;
17414;SDS011;8825;48.086;16.426;2023-06-10T04:24:33;6.20;;;5.70;;
17414;SDS011;8825;48.086;16.426;2023-06-10T04:27:01;6.20;;;5.67;;
17414;SDS011;8825;48.086;16.426;2023-06-10T04:29:29;6.47;;;5.93;;
17414;SDS011;8825;48.086;16.426;2023-06-10T04:31:56;6.53;;;5.97;;
17414;SDS011;8825;48.086;16.426;2023-06-10T04:34:24;6.23;;;5.73;;
17414;SDS011;8825;48.086;16.426;2023-06-10T04:36:51;5.93;;;5.47;;
17414;SDS011;8825;48.086;16.426;2023-06-10T04:39:19;6.67;;;6.07;;
17414;SDS011;8825;48.086;16.426;2023-06-10T04:41:46;6.30;;;5.80;;
17414;SDS011;8825;48.086;16.426;2023-06-10T04:44:14;6.93;;;6.33;;
17414;SDS011;8825;48.086;16.426;2023-06-10T04:46:41;6.33;;;5.83;;
17414;SDS011;8825;48.086;16.426;2023-06-10T04:49:09;8.27;;;6.70;;
17414;SDS011;8825;48.086;16.426;2023-06-10T04:51:36;7.40;;;6.70;;
17414;SDS011;8825;48.086;16.426;2023-06-10T04:54:04;7.57;;;6.87;;
17414;SDS011;8825;48.086;16.426;2023-06-10T04:56:31;6.83;;;6.23;;
17414;SDS011;8825;48.086;16.426;2023-06-10T04:58:59;7.20;;;6.60;;
17414;SDS011;8825;48.086;16.426;2023-06-10T05:01:26;8.87;;;8.00;;
17414;SDS011;8825;48.086;16.426;2023-06-10T05:03:54;7.37;;;6.77;;
17414;SDS011;8825;48.086;16.426;2023-06-10T05:06:21;8.53;;;7.73;;
17414;SDS011;8825;48.086;16.426;2023-06-10T05:08:49;8.70;;;8.00;;
17414;SDS011;8825;48.086;16.426;2023-06-10T05:11:17;7.50;;;6.90;;
17414;SDS011;8825;48.086;16.426;2023-06-10T05:13:44;7.67;;;7.03;;
17414;SDS011;8825;48.086;16.426;2023-06-10T05:16:12;8.37;;;7.60;;
17414;SDS011;8825;48.086;16.426;2023-06-10T05:18:40;8.60;;;7.80;;
17414;SDS011;8825;48.086;16.426;2023-06-10T05:21:08;9.13;;;7.87;;
17414;SDS011;8825;48.086;16.426;2023-06-10T05:23:36;8.77;;;8.00;;
17414;SDS011;8825;48.086;16.426;2023-06-10T05:26:03;8.67;;;7.87;;
17414;SDS011;8825;48.086;16.426;2023-06-10T05:28:31;8.10;;;7.50;;
17414;SDS011;8825;48.086;16.426;2023-06-10T05:30:58;8.80;;;8.10;;
17414;SDS011;8825;48.086;16.426;2023-06-10T05:33:26;9.70;;;8.83;;
17414;SDS011;8825;48.086;16.426;2023-06-10T05:35:53;8.43;;;7.73;;
17414;SDS011;8825;48.086;16.426;2023-06-10T05:38:21;8.73;;;8.03;;
17414;SDS011;8825;48.086;16.426;2023-06-10T05:40:48;9.27;;;8.47;;
17414;SDS011;8825;48.086;16.426;2023-06-10T05:43:16;8.43;;;7.73;;
17414;SDS011;8825;48.086;16.426;2023-06-10T05:45:43;10.13;;;9.20;;
17414;SDS011;8825;48.086;16.426;2023-06-10T05:48:11;9.70;;;8.80;;
17414;SDS011;8825;48.086;16.426;2023-06-10T05:50:39;9.77;;;8.77;;
17414;SDS011;8825;48.086;16.426;2023-06-10T05:53:08;10.53;;;9.63;;
17414;SDS011;8825;48.086;16.426;2023-06-10T05:55:37;10.20;;;9.33;;
17414;SDS011;8825;48.086;16.426;2023-06-10T05:58:05;9.60;;;8.80;;
17414;SDS011;8825;48.086;16.426;2023-06-10T06:00:32;9.50;;;8.60;;
17414;SDS011;8825;48.086;16.426;2023-06-10T06:03:00;9.37;;;8.60;;
17414;SDS011;8825;48.086;16.426;2023-06-10T06:05:28;9.63;;;8.83;;
17414;SDS011;8825;48.086;16.426;2023-06-10T06:07:57;10.73;;;9.83;;
17414;SDS011;8825;48.086;16.426;2023-06-10T06:10:24;10.53;;;9.63;;
17414;SDS011;8825;48.086;16.426;2023-06-10T06:12:52;10.33;;;9.43;;
17414;SDS011;8825;48.086;16.426;2023-06-10T06:15:19;10.10;;;9.30;;
17414;SDS011;8825;48.086;16.426;2023-06-10T06:17:47;10.10;;;9.20;;
17414;SDS011;8825;48.086;16.426;2023-06-10T06:20:14;10.50;;;9.60;;
17414;SDS011;8825;48.086;16.426;2023-06-10T06:22:42;10.37;;;9.47;;
17414;SDS011;8825;48.086;16.426;2023-06-10T06:25:09;10.47;;;9.40;;
17414;SDS011;8825;48.086;16.426;2023-06-10T06:27:37;11.70;;;10.50;;
17414;SDS011;8825;48.086;16.426;2023-06-10T06:30:05;10.83;;;9.73;;
17414;SDS011;8825;48.086;16.426;2023-06-10T06:32:33;11.13;;;10.13;;
17414;SDS011;8825;48.086;16.426;2023-06-10T06:35:00;10.50;;;9.60;;
17414;SDS011;8825;48.086;16.426;2023-06-10T06:37:28;11.47;;;10.47;;
17414;SDS011;8825;48.086;16.426;2023-06-10T06:39:57;11.50;;;10.50;;
17414;SDS011;8825;48.086;16.426;2023-06-10T06:42:25;10.97;;;9.97;;
17414;SDS011;8825;48.086;16.426;2023-06-10T06:44:52;11.00;;;10.00;;
17414;SDS011;8825;48.086;16.426;2023-06-10T06:47:20;10.83;;;9.77;;
17414;SDS011;8825;48.086;16.426;2023-06-10T06:49:47;10.83;;;9.93;;
17414;SDS011;8825;48.086;16.426;2023-06-10T06:52:15;10.90;;;9.90;;
17414;SDS011;8825;48.086;16.426;2023-06-10T06:54:43;10.90;;;10.03;;
17414;SDS011;8825;48.086;16.426;2023-06-10T06:57:10;11.30;;;10.30;;
17414;SDS011;8825;48.086;16.426;2023-06-10T06:59:38;13.37;;;12.07;;
17414;SDS011;8825;48.086;16.426;2023-06-10T07:02:06;14.13;;;12.83;;
17414;SDS011;8825;48.086;16.426;2023-06-10T07:04:33;14.63;;;13.13;;
17414;SDS011;8825;48.086;16.426;2023-06-10T07:07:01;13.87;;;12.57;;
17414;SDS011;8825;48.086;16.426;2023-06-10T07:09:29;16.67;;;14.27;;
17414;SDS011;8825;48.086;16.426;2023-06-10T07:11:56;15.17;;;13.67;;
17414;SDS011;8825;48.086;16.426;2023-06-10T07:14:24;15.13;;;13.73;;
17414;SDS011;8825;48.086;16.426;2023-06-10T07:16:51;14.67;;;13.27;;
17414;SDS011;8825;48.086;16.426;2023-06-10T07:19:19;15.43;;;13.90;;
17414;SDS011;8825;48.086;16.426;2023-06-10T07:21:46;15.57;;;14.07;;
17414;SDS011;8825;48.086;16.426;2023-06-10T07:24:14;15.03;;;13.57;;
17414;SDS011;8825;48.086;16.426;2023-06-10T07:26:41;14.33;;;12.90;;
17414;SDS011;8825;48.086;16.426;2023-06-10T07:29:09;14.07;;;12.83;;
17414;SDS011;8825;48.086;16.426;2023-06-10T07:31:36;14.50;;;13.20;;
17414;SDS011;8825;48.086;16.426;2023-06-10T07:34:04;14.43;;;12.93;;
17414;SDS011;8825;48.086;16.426;2023-06-10T07:36:31;14.90;;;13.47;;
17414;SDS011;8825;48.086;16.426;2023-06-10T07:38:59;14.73;;;13.33;;
17414;SDS011;8825;48.086;16.426;2023-06-10T07:41:26;15.57;;;14.17;;
17414;SDS011;8825;48.086;16.426;2023-06-10T07:43:54;14.93;;;13.53;;
17414;SDS011;8825;48.086;16.426;2023-06-10T07:46:22;14.00;;;12.70;;
17414;SDS011;8825;48.086;16.426;2023-06-10T07:48:50;14.07;;;12.73;;
17414;SDS011;8825;48.086;16.426;2023-06-10T07:51:18;14.50;;;13.07;;
17414;SDS011;8825;48.086;16.426;2023-06-10T07:53:46;14.70;;;13.30;;
17414;SDS011;8825;48.086;16.426;2023-06-10T07:56:13;15.53;;;14.10;;
17414;SDS011;8825;48.086;16.426;2023-06-10T07:58:41;14.87;;;13.37;;
17414;SDS011;8825;48.086;16.426;2023-06-10T08:01:08;15.87;;;14.37;;
17414;SDS011;8825;48.086;16.426;2023-06-10T08:03:36;14.23;;;12.93;;
17414;SDS011;8825;48.086;16.426;2023-06-10T08:06:03;16.17;;;14.47;;
17414;SDS011;8825;48.086;16.426;2023-06-10T08:08:31;14.70;;;13.40;;
17414;SDS011;8825;48.086;16.426;2023-06-10T08:11:00;13.93;;;12.73;;
17414;SDS011;8825;48.086;16.426;2023-06-10T08:13:28;14.23;;;12.67;;
17414;SDS011;8825;48.086;16.426;2023-06-10T08:15:55;14.47;;;13.17;;
17414;SDS011;8825;48.086;16.426;2023-06-10T08:18:23;14.67;;;13.27;;
17414;SDS011;8825;48.086;16.426;2023-06-10T08:20:50;13.43;;;12.03;;
17414;SDS011;8825;48.086;16.426;2023-06-10T08:23:18;13.90;;;12.50;;
17414;SDS011;8825;48.086;16.426;2023-06-10T08:25:46;13.20;;;12.00;;
17414;SDS011;8825;48.086;16.426;2023-06-10T08:28:13;13.60;;;12.40;;
17414;SDS011;8825;48.086;16.426;2023-06-10T08:30:41;13.93;;;12.63;;
17414;SDS011;8825;48.086;16.426;2023-06-10T08:33:08;15.40;;;13.90;;
17414;SDS011;8825;48.086;16.426;2023-06-10T08:35:36;20.40;;;14.83;;
17414;SDS011;8825;48.086;16.426;2023-06-10T08:38:03;34.40;;;16.93;;
17414;SDS011;8825;48.086;16.426;2023-06-10T08:40:31;27.93;;;16.07;;
17414;SDS011;8825;48.086;16.426;2023-06-10T08:43:06;18.67;;;14.07;;
17414;SDS011;8825;48.086;16.426;2023-06-10T08:45:35;15.17;;;13.53;;
17414;SDS011;8825;48.086;16.426;2023-06-10T08:48:04;14.23;;;12.83;;
17414;SDS011;8825;48.086;16.426;2023-06-10T08:50:35;15.43;;;13.20;;
17414;SDS011;8825;48.086;16.426;2023-06-10T08:53:09;26.47;;;15.43;;
17414;SDS011;8825;48.086;16.426;2023-06-10T08:55:35;21.73;;;15.33;;
17414;SDS011;8825;48.086;16.426;2023-06-10T08:58:04;16.07;;;14.37;;
17414;SDS011;8825;48.086;16.426;2023-06-10T09:00:31;15.90;;;13.33;;
17414;SDS011;8825;48.086;16.426;2023-06-10T09:03:00;14.40;;;12.90;;
17414;SDS011;8825;48.086;16.426;2023-06-10T09:05:29;15.03;;;12.50;;
17414;SDS011;8825;48.086;16.426;2023-06-10T09:07:57;18.13;;;13.33;;
17414;SDS011;8825;48.086;16.426;2023-06-10T09:10:25;16.80;;;13.63;;
17414;SDS011;8825;48.086;16.426;2023-06-10T09:12:53;17.17;;;12.73;;
17414;SDS011;8825;48.086;16.426;2023-06-10T09:15:21;29.50;;;15.77;;
17414;SDS011;8825;48.086;16.426;2023-06-10T09:17:49;22.40;;;13.43;;
17414;SDS011;8825;48.086;16.426;2023-06-10T09:20:17;16.13;;;13.23;;
17414;SDS011;8825;48.086;16.426;2023-06-10T09:22:45;15.50;;;12.07;;
17414;SDS011;8825;48.086;16.426;2023-06-10T09:25:13;13.73;;;12.50;;
17414;SDS011;8825;48.086;16.426;2023-06-10T09:27:48;13.37;;;12.07;;
17414;SDS011;8825;48.086;16.426;2023-06-10T09:30:31;13.73;;;12.43;;
17414;SDS011;8825;48.086;16.426;2023-06-10T09:33:02;13.87;;;12.50;;
17414;SDS011;8825;48.086;16.426;2023-06-10T09:35:32;12.67;;;11.47;;
17414;SDS011;8825;48.086;16.426;2023-06-10T09:38:00;14.20;;;12.93;;
17414;SDS011;8825;48.086;16.426;2023-06-10T09:40:28;13.83;;;12.43;;
17414;SDS011;8825;48.086;16.426;2023-06-10T09:42:57;13.53;;;12.33;;
17414;SDS011;8825;48.086;16.426;2023-06-10T09:45:32;13.07;;;11.87;;
17414;SDS011;8825;48.086;16.426;2023-06-10T09:48:00;13.40;;;12.20;;
17414;SDS011;8825;48.086;16.426;2023-06-10T09:50:27;14.07;;;12.87;;
17414;SDS011;8825;48.086;16.426;2023-06-10T09:52:56;13.83;;;12.57;;
17414;SDS011;8825;48.086;16.426;2023-06-10T09:55:24;12.97;;;11.77;;
17414;SDS011;8825;48.086;16.426;2023-06-10T09:57:53;12.30;;;11.20;;
17414;SDS011;8825;48.086;16.426;2023-06-10T10:00:21;13.13;;;12.03;;
17414;SDS011;8825;48.086;16.426;2023-06-10T10:02:52;12.93;;;11.83;;
17414;SDS011;8825;48.086;16.426;2023-06-10T10:05:21;12.60;;;11.50;;
17414;SDS011;8825;48.086;16.426;2023-06-10T10:07:49;12.77;;;11.67;;
17414;SDS011;8825;48.086;16.426;2023-06-10T10:10:17;12.57;;;11.57;;
17414;SDS011;8825;48.086;16.426;2023-06-10T10:12:46;12.17;;;11.07;;
17414;SDS011;8825;48.086;16.426;2023-06-10T10:15:15;11.90;;;10.90;;
17414;SDS011;8825;48.086;16.426;2023-06-10T10:17:52;11.17;;;10.20;;
17414;SDS011;8825;48.086;16.426;2023-06-10T10:20:27;11.60;;;10.50;;
17414;SDS011;8825;48.086;16.426;2023-06-10T10:22:56;10.87;;;9.97;;
17414;SDS011;8825;48.086;16.426;2023-06-10T10:25:29;11.20;;;10.20;;
17414;SDS011;8825;48.086;16.426;2023-06-10T10:28:07;10.73;;;9.80;;
17414;SDS011;8825;48.086;16.426;2023-06-10T10:30:42;10.07;;;9.27;;
17414;SDS011;8825;48.086;16.426;2023-06-10T10:33:22;10.53;;;9.57;;
17414;SDS011;8825;48.086;16.426;2023-06-10T10:35:51;10.57;;;9.57;;
17414;SDS011;8825;48.086;16.426;2023-06-10T10:38:19;10.43;;;9.53;;
17414;SDS011;8825;48.086;16.426;2023-06-10T10:40:49;9.57;;;8.67;;
17414;SDS011;8825;48.086;16.426;2023-06-10T10:43:18;8.97;;;8.27;;
17414;SDS011;8825;48.086;16.426;2023-06-10T10:45:46;9.90;;;9.00;;
17414;SDS011;8825;48.086;16.426;2023-06-10T10:48:15;9.83;;;8.93;;
17414;SDS011;8825;48.086;16.426;2023-06-10T10:50:43;9.80;;;8.93;;
17414;SDS011;8825;48.086;16.426;2023-06-10T10:53:12;9.43;;;8.63;;
17414;SDS011;8825;48.086;16.426;2023-06-10T10:55:42;10.63;;;9.63;;
17414;SDS011;8825;48.086;16.426;2023-06-10T10:58:13;10.60;;;9.60;;
17414;SDS011;8825;48.086;16.426;2023-06-10T11:00:45;9.10;;;8.40;;
17414;SDS011;8825;48.086;16.426;2023-06-10T11:03:13;10.07;;;9.17;;
17414;SDS011;8825;48.086;16.426;2023-06-10T11:05:43;9.03;;;8.23;;
17414;SDS011;8825;48.086;16.426;2023-06-10T11:09:01;9.80;;;8.90;;
17414;SDS011;8825;48.086;16.426;2023-06-10T11:11:00;9.30;;;8.50;;
17414;SDS011;8825;48.086;16.426;2023-06-10T11:14:10;8.90;;;8.20;;
17414;SDS011;8825;48.086;16.426;2023-06-10T11:16:27;9.07;;;8.27;;
17414;SDS011;8825;48.086;16.426;2023-06-10T11:18:56;8.57;;;7.80;;
17414;SDS011;8825;48.086;16.426;2023-06-10T11:21:24;9.13;;;8.33;;
17414;SDS011;8825;48.086;16.426;2023-06-10T11:23:51;9.47;;;8.57;;
17414;SDS011;8825;48.086;16.426;2023-06-10T11:26:20;8.70;;;7.93;;
17414;SDS011;8825;48.086;16.426;2023-06-10T11:31:39;7.93;;;7.23;;
17414;SDS011;8825;48.086;16.426;2023-06-10T11:34:05;8.63;;;7.80;;
17414;SDS011;8825;48.086;16.426;2023-06-10T11:36:36;8.50;;;7.70;;
17414;SDS011;8825;48.086;16.426;2023-06-10T11:39:06;9.70;;;7.90;;
17414;SDS011;8825;48.086;16.426;2023-06-10T11:41:34;7.73;;;7.10;;
17414;SDS011;8825;48.086;16.426;2023-06-10T11:44:06;6.90;;;6.33;;
17414;SDS011;8825;48.086;16.426;2023-06-10T11:46:37;7.07;;;6.57;;
17414;SDS011;8825;48.086;16.426;2023-06-10T11:49:05;7.73;;;7.03;;
17414;SDS011;8825;48.086;16.426;2023-06-10T11:51:38;7.43;;;6.83;;
17414;SDS011;8825;48.086;16.426;2023-06-10T11:54:03;8.03;;;7.30;;
17414;SDS011;8825;48.086;16.426;2023-06-10T11:59:22;8.60;;;7.80;;
17414;SDS011;8825;48.086;16.426;2023-06-10T12:01:50;8.07;;;7.37;;
17414;SDS011;8825;48.086;16.426;2023-06-10T12:04:18;8.20;;;7.50;;
17414;SDS011;8825;48.086;16.426;2023-06-10T12:06:55;7.40;;;6.80;;
17414;SDS011;8825;48.086;16.426;2023-06-10T12:09:19;8.57;;;7.87;;
17414;SDS011;8825;48.086;16.426;2023-06-10T12:11:55;8.17;;;7.23;;
17414;SDS011;8825;48.086;16.426;2023-06-10T12:17:35;7.80;;;7.20;;
17414;SDS011;8825;48.086;16.426;2023-06-10T12:20:07;8.70;;;7.90;;
17414;SDS011;8825;48.086;16.426;2023-06-10T12:22:36;7.60;;;6.83;;
17414;SDS011;8825;48.086;16.426;2023-06-10T12:25:05;7.57;;;6.97;;
17414;SDS011;8825;48.086;16.426;2023-06-10T12:27:33;7.30;;;6.70;;
17414;SDS011;8825;48.086;16.426;2023-06-10T12:30:03;7.23;;;6.63;;
17414;SDS011;8825;48.086;16.426;2023-06-10T12:32:42;6.87;;;6.27;;
17414;SDS011;8825;48.086;16.426;2023-06-10T12:35:11;7.23;;;6.63;;
17414;SDS011;8825;48.086;16.426;2023-06-10T12:37:40;8.33;;;7.63;;
17414;SDS011;8825;48.086;16.426;2023-06-10T12:40:08;8.00;;;7.30;;
17414;SDS011;8825;48.086;16.426;2023-06-10T12:42:37;8.20;;;7.27;;
17414;SDS011;8825;48.086;16.426;2023-06-10T12:45:05;10.90;;;7.67;;
17414;SDS011;8825;48.086;16.426;2023-06-10T12:47:36;8.47;;;7.67;;
17414;SDS011;8825;48.086;16.426;2023-06-10T12:50:05;8.87;;;7.97;;
17414;SDS011;8825;48.086;16.426;2023-06-10T12:52:33;8.70;;;7.90;;
17414;SDS011;8825;48.086;16.426;2023-06-10T12:55:01;8.67;;;7.97;;
17414;SDS011;8825;48.086;16.426;2023-06-10T12:57:30;8.70;;;7.93;;
17414;SDS011;8825;48.086;16.426;2023-06-10T12:59:57;9.00;;;8.10;;
17414;SDS011;8825;48.086;16.426;2023-06-10T13:02:26;9.87;;;8.97;;
17414;SDS011;8825;48.086;16.426;2023-06-10T13:04:54;9.17;;;8.27;;
17414;SDS011;8825;48.086;16.426;2023-06-10T13:07:21;9.60;;;8.70;;
17414;SDS011;8825;48.086;16.426;2023-06-10T13:09:49;10.37;;;9.40;;
17414;SDS011;8825;48.086;16.426;2023-06-10T13:12:17;11.63;;;10.63;;
17414;SDS011;8825;48.086;16.426;2023-06-10T13:14:44;11.00;;;10.00;;
17414;SDS011;8825;48.086;16.426;2023-06-10T13:17:12;12.20;;;11.00;;
17414;SDS011;8825;48.086;16.426;2023-06-10T13:19:40;11.07;;;10.07;;
17414;SDS011;8825;48.086;16.426;2023-06-10T13:22:08;11.30;;;10.10;;
17414;SDS011;8825;48.086;16.426;2023-06-10T13:24:35;10.80;;;9.90;;
17414;SDS011;8825;48.086;16.426;2023-06-10T13:27:08;10.43;;;9.53;;
17414;SDS011;8825;48.086;16.426;2023-06-10T13:29:36;10.33;;;9.43;;
17414;SDS011;8825;48.086;16.426;2023-06-10T13:32:04;8.83;;;8.13;;
17414;SDS011;8825;48.086;16.426;2023-06-10T13:34:31;9.03;;;8.33;;
17414;SDS011;8825;48.086;16.426;2023-06-10T13:36:59;8.00;;;7.30;;
17414;SDS011;8825;48.086;16.426;2023-06-10T13:39:27;8.10;;;7.40;;
17414;SDS011;8825;48.086;16.426;2023-06-10T13:41:54;8.20;;;7.50;;
17414;SDS011;8825;48.086;16.426;2023-06-10T13:44:22;7.50;;;6.90;;
17414;SDS011;8825;48.086;16.426;2023-06-10T13:46:49;7.57;;;6.80;;
17414;SDS011;8825;48.086;16.426;2023-06-10T13:49:17;7.73;;;7.03;;
17414;SDS011;8825;48.086;16.426;2023-06-10T13:51:44;7.67;;;7.07;;
17414;SDS011;8825;48.086;16.426;2023-06-10T13:54:12;7.40;;;6.80;;
17414;SDS011;8825;48.086;16.426;2023-06-10T13:56:41;7.53;;;6.93;;
17414;SDS011;8825;48.086;16.426;2023-06-10T13:59:08;7.07;;;6.47;;
17414;SDS011;8825;48.086;16.426;2023-06-10T14:01:36;8.10;;;7.40;;
17414;SDS011;8825;48.086;16.426;2023-06-10T14:04:03;8.47;;;7.67;;
17414;SDS011;8825;48.086;16.426;2023-06-10T14:06:32;7.70;;;7.10;;
17414;SDS011;8825;48.086;16.426;2023-06-10T14:09:00;8.20;;;7.50;;
17414;SDS011;8825;48.086;16.426;2023-06-10T14:11:27;7.17;;;6.57;;
17414;SDS011;8825;48.086;16.426;2023-06-10T14:13:55;8.17;;;7.37;;
17414;SDS011;8825;48.086;16.426;2023-06-10T14:16:23;8.47;;;7.77;;
17414;SDS011;8825;48.086;16.426;2023-06-10T14:18:51;8.07;;;7.47;;
17414;SDS011;8825;48.086;16.426;2023-06-10T14:21:18;8.40;;;7.70;;
17414;SDS011;8825;48.086;16.426;2023-06-10T14:23:46;7.93;;;7.23;;
17414;SDS011;8825;48.086;16.426;2023-06-10T14:26:15;8.50;;;7.80;;
17414;SDS011;8825;48.086;16.426;2023-06-10T14:28:42;8.73;;;8.03;;
17414;SDS011;8825;48.086;16.426;2023-06-10T14:31:10;8.80;;;8.10;;
17414;SDS011;8825;48.086;16.426;2023-06-10T14:33:37;9.00;;;8.20;;
17414;SDS011;8825;48.086;16.426;2023-06-10T14:36:06;8.23;;;7.53;;
17414;SDS011;8825;48.086;16.426;2023-06-10T14:38:34;8.20;;;7.50;;
17414;SDS011;8825;48.086;16.426;2023-06-10T14:41:01;8.60;;;7.90;;
17414;SDS011;8825;48.086;16.426;2023-06-10T14:43:29;8.50;;;7.80;;
17414;SDS011;8825;48.086;16.426;2023-06-10T14:45:57;8.30;;;7.53;;
17414;SDS011;8825;48.086;16.426;2023-06-10T14:48:24;8.63;;;7.93;;
17414;SDS011;8825;48.086;16.426;2023-06-10T14:50:51;8.50;;;7.80;;
17414;SDS011;8825;48.086;16.426;2023-06-10T14:53:21;8.13;;;7.43;;
17414;SDS011;8825;48.086;16.426;2023-06-10T14:55:48;8.30;;;7.70;;
17414;SDS011;8825;48.086;16.426;2023-06-10T14:58:16;8.03;;;7.33;;
17414;SDS011;8825;48.086;16.426;2023-06-10T15:00:43;8.53;;;7.83;;